Wynnewood, PA (19096)

6:20 AM EDT on March 25, 2017 (GMT -0400)
Penn Wynne | | Change Station

Elev 243 ft 39.99 °N, 75.29 °W | Updated 6 seconds ago

Mostly Cloudy
Mostly Cloudy
49.8 °F
Feels Like 50 °F
N
0.0
Wind Variable Wind from SSE
Gusts 0.0 mph

Today
High -- | Low -- °F
--% Chance of Precip.
Yesterday
High -- | Low -- °F
Precip. -- in
Pressure 30.14 in
Visibility 10.0 miles
Clouds Few 7000 ft
Scattered Clouds 15000 ft
Overcast 25000 ft
Windchill 50 °F
Dew Point 47 °F
Humidity 90%
Rainfall 0.00 in
Snow Depth Not available.
6:55 AM 7:18 PM
Waning Crescent, 9% visible
METAR KPHL 250954Z 23010KT 10SM FEW070 SCT150 OVC250 11/06 A3013 RMK AO2 SLP204 T01110061 $
Pressure 30.14 in
Visibility 10.0 miles
Clouds Few 7000 ft
Scattered Clouds 15000 ft
Overcast 25000 ft
Windchill 50 °F
Dew Point 47 °F
Humidity 90%
Rainfall 0.00 in
Snow Depth Not available.
6:55 AM 7:18 PM
Waning Crescent, 9% visible
METAR KPHL 250954Z 23010KT 10SM FEW070 SCT150 OVC250 11/06 A3013 RMK AO2 SLP204 T01110061 $

Get Severe Weather Alerts

Thanks for signing up!

Be on the lookout for a verification email in your inbox.

You'll start receiving the daily forecast at 8 AM.

×

10-Day Weather Forecast

Almanac

Astronomy

Mar. 25, 2017 Rise Set
Actual Time
Civil Twilight
Nautical Twilight
Astronomical Twilight
Moon
Length of Visible Light
Length of Day
Tomorrow will be .
, % of the Moon is Illuminated

Today's Extremes

State Highs State Lows

Community

WunderPhotos

Upload Photos

1,962,540 photos uploaded!

WunderBlog® & News

Nearby

Air Quality

  Air Quality AQ Index Pollutant
Not available.

Snow Depth

Station Depth Elevation

Earthquake Activity

City Distance Mag. Time & Date
Minimum magnitude displayed is 2.5.

Earthquake Activity

City Distance Mag. Time & Date
Minimum magnitude displayed is 2.5.

Coastal Water Temperatures

Place Temperature

Stations

Nearby Weather Stations

Station Location Temp. Windchill Dew Point Humidity Wind Precip. Elev Updated Type
                   

Watches & Warnings

There are currently no watches in effect.